Mount Olive, Texas
Current Conditions -  °F | °C
As of 4:55 PM on Thursday 27 Nov 2014 (Local Time) from KT20 Reporting Station
Thunderstorm Thunderstorm  
Wind Chill: 65°   Ceiling: Unl
Heat Index: 65°   Visibility: 7mi
Dew Point: 35°   Wind: 5mph
Humidity: 33%   Direction: 90°E
Pressure: 30.39"   Gusts: NA
Location:  29.4258°N, 97.1461°W
Report Text: KT20 272255Z AUTO 09004KT 7SM VCTS CLR 18/02 A3039 RMK AO2 T01820015
Loading
Personal Weather Stations






























Interactive Weather Map New forecast layout! Learn more

10-Day Weather Forecast

Advertisements
Track Severe Weather on mobile